createdAt,value
2019-03-10T00:00:31.713Z,100359.52
2019-03-10T00:03:02.698Z,100365.03
2019-03-10T00:05:32.985Z,100365.94
2019-03-10T00:08:06.994Z,100359.09
2019-03-10T00:10:40.064Z,100363.04
2019-03-10T00:13:08.987Z,100355.57
2019-03-10T00:15:38.070Z,100359.98
2019-03-10T00:18:07.394Z,100353.36
2019-03-10T00:20:36.377Z,100348.47
2019-03-10T00:23:04.946Z,100345.48
2019-03-10T00:25:33.718Z,100349.86
2019-03-10T00:28:02.289Z,100347.39
2019-03-10T00:30:34.984Z,100349.06
2019-03-10T00:33:03.564Z,100345.28
2019-03-10T00:35:32.688Z,100343.27
2019-03-10T00:38:04.321Z,100345.19
2019-03-10T00:40:59.709Z,100338.25
2019-03-10T00:44:20.611Z,100336.92
2019-03-10T00:47:32.931Z,100336.78
2019-03-10T00:51:10.250Z,100340.83
2019-03-10T00:53:40.382Z,100330.56
2019-03-10T00:56:12.857Z,100326.67
2019-03-10T00:58:43.162Z,100310.53
2019-03-10T01:01:11.795Z,100312.62
2019-03-10T01:03:40.777Z,100312.62
2019-03-10T01:06:09.715Z,100325.05
2019-03-10T01:08:39.691Z,100320.23
2019-03-10T01:11:08.490Z,100322.25
2019-03-10T01:13:38.427Z,100308.91
2019-03-10T01:16:07.794Z,100324.57
2019-03-10T01:18:57.626Z,100309.08
2019-03-10T01:21:26.598Z,100312.20
2019-03-10T01:23:56.138Z,100303.35
2019-03-10T01:26:24.924Z,100302.13
2019-03-10T01:28:53.484Z,100291.77
2019-03-10T01:31:46.261Z,100297.58
2019-03-10T01:34:57.028Z,100299.36
2019-03-10T01:37:25.603Z,100286.20
2019-03-10T01:39:57.018Z,100286.15
2019-03-10T01:42:26.175Z,100288.73
2019-03-10T01:44:55.245Z,100281.60
2019-03-10T01:47:24.196Z,100277.61
2019-03-10T01:49:52.762Z,100276.64
2019-03-10T01:52:21.779Z,100277.68
2019-03-10T01:54:53.958Z,100276.34
2019-03-10T01:57:23.068Z,100268.45
2019-03-10T01:59:52.030Z,100264.75
2019-03-10T02:02:25.523Z,100263.61
2019-03-10T02:04:54.738Z,100270.42
2019-03-10T02:07:23.503Z,100249.67
2019-03-10T02:09:53.647Z,100249.20
2019-03-10T02:12:22.251Z,100237.36
2019-03-10T02:14:50.943Z,100242.16
2019-03-10T02:17:21.547Z,100247.13
2019-03-10T02:19:55.144Z,100243.84
2019-03-10T02:22:23.734Z,100239.36
2019-03-10T02:24:53.101Z,100240.23
2019-03-10T02:27:23.717Z,100247.72
2019-03-10T02:29:53.823Z,100252.27
2019-03-10T02:32:24.467Z,100243.66
2019-03-10T02:34:55.430Z,100237.92
2019-03-10T02:37:23.524Z,100231.52
2019-03-10T02:39:52.253Z,100233.50
2019-03-10T02:42:21.064Z,100234.77
2019-03-10T02:44:51.109Z,100233.86
2019-03-10T02:47:20.999Z,100226.63
2019-03-10T02:49:50.282Z,100231.23
2019-03-10T02:52:19.158Z,100209.00
2019-03-10T02:54:49.793Z,100208.28
2019-03-10T02:57:18.391Z,100202.40
2019-03-10T02:59:50.114Z,100196.37
2019-03-10T03:02:18.691Z,100196.61
2019-03-10T03:04:47.445Z,100189.27
2019-03-10T03:07:16.386Z,100182.45
2019-03-10T03:09:44.974Z,100183.53
2019-03-10T03:12:13.915Z,100175.73
2019-03-10T03:14:42.657Z,100169.21
2019-03-10T03:17:12.991Z,100161.50
2019-03-10T03:19:41.584Z,100152.47
2019-03-10T03:22:10.542Z,100143.77
2019-03-10T03:24:42.281Z,100141.13
2019-03-10T03:27:12.491Z,100135.44
2019-03-10T03:29:41.257Z,100141.55
2019-03-10T03:32:09.834Z,100136.94
2019-03-10T03:34:41.784Z,100140.64
2019-03-10T03:37:13.855Z,100133.17
2019-03-10T03:39:47.981Z,100130.08
2019-03-10T03:42:16.731Z,100119.38
2019-03-10T03:44:47.768Z,100113.72
2019-03-10T03:47:16.518Z,100110.84
2019-03-10T03:49:45.279Z,100110.73
2019-03-10T03:52:14.830Z,100106.00
2019-03-10T03:54:44.810Z,100095.08
2019-03-10T03:57:15.405Z,100088.36
2019-03-10T03:59:46.048Z,100095.48
2019-03-10T04:02:49.235Z,100089.03
2019-03-10T04:05:17.833Z,100086.81
2019-03-10T04:07:46.610Z,100073.38
2019-03-10T04:10:16.906Z,100069.76
2019-03-10T04:12:45.546Z,100066.75
2019-03-10T04:15:15.658Z,100059.16
2019-03-10T04:17:44.419Z,100059.73
2019-03-10T04:20:13.193Z,100015.54
2019-03-10T04:22:41.810Z,100043.70
2019-03-10T04:25:10.711Z,100036.34
2019-03-10T04:27:39.916Z,100035.88
2019-03-10T04:30:09.149Z,100035.20
2019-03-10T04:32:38.608Z,100040.63
2019-03-10T04:35:07.221Z,100033.21
2019-03-10T04:37:35.821Z,100030.45
2019-03-10T04:40:04.841Z,100028.65
2019-03-10T04:42:33.853Z,100020.35
2019-03-10T04:45:02.974Z,100012.47
2019-03-10T04:47:34.161Z,100014.99
2019-03-10T04:50:03.401Z,100009.90
2019-03-10T04:52:31.951Z,100007.65
2019-03-10T04:55:20.113Z,99994.44
2019-03-10T04:58:01.176Z,100000.27
2019-03-10T05:00:30.665Z,99994.56
2019-03-10T05:03:01.405Z,99994.56
2019-03-10T05:05:32.186Z,99985.70
2019-03-10T05:08:00.765Z,99992.69
2019-03-10T05:10:33.019Z,99980.04
2019-03-10T05:13:01.765Z,99971.30
2019-03-10T05:15:32.244Z,99967.36
2019-03-10T05:18:01.199Z,99965.20
2019-03-10T05:20:29.781Z,99949.86
2019-03-10T05:23:31.252Z,99947.64
2019-03-10T05:25:59.839Z,99941.13
2019-03-10T05:28:30.797Z,99934.97
2019-03-10T05:30:59.434Z,99933.25
2019-03-10T05:33:30.760Z,99930.88
2019-03-10T05:36:03.925Z,99927.17
2019-03-10T05:38:32.478Z,99930.08
2019-03-10T05:41:05.262Z,99933.23
2019-03-10T05:43:35.278Z,99927.84
2019-03-10T05:46:03.878Z,99928.81
2019-03-10T05:48:32.435Z,99924.27
2019-03-10T05:51:01.016Z,99927.72
2019-03-10T05:53:29.585Z,99920.52
2019-03-10T05:55:59.084Z,99918.42
2019-03-10T05:58:28.048Z,99909.58
2019-03-10T06:01:00.144Z,99908.94
2019-03-10T06:03:28.878Z,99902.78
2019-03-10T06:05:58.089Z,99901.00
2019-03-10T06:08:26.841Z,99894.44
2019-03-10T06:10:59.601Z,99895.58
2019-03-10T06:13:28.151Z,99892.89
2019-03-10T06:15:57.349Z,99874.98
2019-03-10T06:18:25.909Z,99868.25
2019-03-10T06:20:56.186Z,99868.80
2019-03-10T06:23:24.753Z,99866.70
2019-03-10T06:25:53.345Z,99860.58
2019-03-10T06:28:22.119Z,99853.67
2019-03-10T06:30:50.706Z,99840.17
2019-03-10T06:33:23.037Z,99838.94
2019-03-10T06:35:53.041Z,99828.98
2019-03-10T06:38:22.169Z,99826.30
2019-03-10T06:40:52.614Z,99814.55
2019-03-10T06:43:22.861Z,99812.88
2019-03-10T06:45:51.431Z,99813.23
2019-03-10T06:48:21.492Z,99804.95
2019-03-10T06:50:51.871Z,99807.98
2019-03-10T06:53:20.488Z,99799.70
2019-03-10T06:55:52.705Z,99796.73
2019-03-10T06:58:21.477Z,99786.09
2019-03-10T07:00:54.076Z,99783.34
2019-03-10T07:03:22.971Z,99774.66
2019-03-10T07:05:54.951Z,99767.78
2019-03-10T07:08:25.252Z,99757.59
2019-03-10T07:10:53.845Z,99754.31
2019-03-10T07:13:24.089Z,99750.03
2019-03-10T07:15:52.676Z,99743.13
2019-03-10T07:18:21.574Z,99726.56
2019-03-10T07:20:51.657Z,99730.70
2019-03-10T07:23:22.462Z,99724.08
2019-03-10T07:26:06.148Z,99717.80
2019-03-10T07:28:54.153Z,99710.20
2019-03-10T07:31:27.300Z,99701.93
2019-03-10T07:34:08.612Z,99700.42
2019-03-10T07:36:56.267Z,99699.58
2019-03-10T07:39:56.199Z,99687.71
2019-03-10T07:42:39.779Z,99677.84
2019-03-10T07:45:18.878Z,99672.12
2019-03-10T07:48:04.899Z,99664.18
2019-03-10T07:50:51.491Z,99667.84
2019-03-10T07:53:38.110Z,99666.44
2019-03-10T07:56:26.962Z,99659.88
2019-03-10T07:59:14.608Z,99659.38
2019-03-10T08:01:49.455Z,99655.47
2019-03-10T08:04:40.761Z,99642.05
2019-03-10T08:07:26.645Z,99632.39
2019-03-10T08:10:09.440Z,99626.67
2019-03-10T08:12:54.024Z,99626.52
2019-03-10T08:15:42.205Z,99613.27
2019-03-10T08:18:28.940Z,99611.18
2019-03-10T08:21:18.190Z,99609.33
2019-03-10T08:23:59.529Z,99608.30
2019-03-10T08:26:53.420Z,99604.14
2019-03-10T08:29:36.467Z,99603.70
2019-03-10T08:32:22.416Z,99587.08
2019-03-10T08:34:56.634Z,99567.87
2019-03-10T08:37:33.597Z,99565.52
2019-03-10T08:40:18.275Z,99569.86
2019-03-10T08:43:02.937Z,99575.03
2019-03-10T08:46:03.499Z,99559.61
2019-03-10T08:49:02.213Z,99549.48
2019-03-10T08:51:46.613Z,99533.42
2019-03-10T08:54:21.053Z,99529.85
2019-03-10T08:57:14.779Z,99519.94
2019-03-10T08:59:59.882Z,99509.03
2019-03-10T09:02:43.089Z,99506.73
2019-03-10T09:05:38.675Z,99509.03
2019-03-10T09:08:27.068Z,99501.84
2019-03-10T09:11:15.380Z,99491.19
2019-03-10T09:14:03.030Z,99475.58
2019-03-10T09:17:05.565Z,99469.45
2019-03-10T09:19:56.508Z,99462.88
2019-03-10T09:22:42.750Z,99454.82
2019-03-10T09:25:46.907Z,99443.72
2019-03-10T09:28:38.038Z,99447.55
2019-03-10T09:31:16.787Z,99434.17
2019-03-10T09:33:51.102Z,99417.98
2019-03-10T09:36:37.660Z,99404.23
2019-03-10T09:39:27.735Z,99402.27
2019-03-10T09:42:14.104Z,99394.63
2019-03-10T09:45:00.608Z,99395.03
2019-03-10T09:47:51.122Z,99393.57
2019-03-10T09:50:39.163Z,99385.03
2019-03-10T09:53:26.358Z,99381.42
2019-03-10T09:56:28.700Z,99374.12
2019-03-10T09:59:19.403Z,99363.52
2019-03-10T10:02:05.254Z,99353.25
2019-03-10T10:04:51.458Z,99337.33
2019-03-10T10:07:37.690Z,99328.14
2019-03-10T10:10:24.341Z,99323.29
2019-03-10T10:13:24.104Z,99314.41
2019-03-10T10:16:21.893Z,99296.25
2019-03-10T10:19:07.416Z,99305.13
2019-03-10T10:22:09.264Z,99280.16
2019-03-10T10:24:44.706Z,99291.90
2019-03-10T10:27:34.781Z,99291.58
2019-03-10T10:30:17.713Z,99284.61
2019-03-10T10:32:55.408Z,99279.11
2019-03-10T10:35:49.313Z,99270.31
2019-03-10T10:38:39.736Z,99256.10
2019-03-10T10:41:25.190Z,99249.89
2019-03-10T10:44:11.709Z,99245.83
2019-03-10T10:47:01.080Z,99242.05
2019-03-10T10:49:58.712Z,99233.47
2019-03-10T10:52:47.191Z,99232.45
2019-03-10T10:55:32.755Z,99220.01
2019-03-10T10:58:12.600Z,99217.66
2019-03-10T11:00:57.185Z,99211.80
2019-03-10T11:03:45.029Z,99206.23
2019-03-10T11:06:49.653Z,99204.44
2019-03-10T11:09:49.261Z,99191.58
2019-03-10T11:12:29.100Z,99185.39
2019-03-10T11:15:05.953Z,99170.87
2019-03-10T11:17:52.662Z,99169.55
2019-03-10T11:20:31.075Z,99154.39
2019-03-10T11:23:17.746Z,99145.83
2019-03-10T11:25:57.661Z,99148.73
2019-03-10T11:28:54.747Z,99148.27
2019-03-10T11:31:37.848Z,99140.52
2019-03-10T11:34:43.487Z,99151.28
2019-03-10T11:37:35.612Z,99141.33
2019-03-10T11:40:46.083Z,99139.45
2019-03-10T11:43:37.714Z,99137.77
2019-03-10T11:46:26.812Z,99132.11
2019-03-10T11:49:11.815Z,99127.41
2019-03-10T11:51:54.695Z,99135.67
2019-03-10T11:54:47.317Z,99116.97
2019-03-10T11:57:41.189Z,99109.87
2019-03-10T12:00:40.499Z,99105.38
2019-03-10T12:03:37.200Z,99100.37
2019-03-10T12:06:33.791Z,99091.11
2019-03-10T12:09:33.297Z,99080.83
2019-03-10T12:12:02.096Z,99083.77
2019-03-10T12:14:31.267Z,99075.80
2019-03-10T12:17:01.589Z,99062.81
2019-03-10T12:19:30.784Z,99049.16
2019-03-10T12:21:59.450Z,99048.91
2019-03-10T12:24:28.009Z,99041.03
2019-03-10T12:26:59.992Z,99037.53
2019-03-10T12:29:32.205Z,99030.52
2019-03-10T12:32:01.345Z,99036.95
2019-03-10T12:34:29.897Z,99036.64
2019-03-10T12:37:00.229Z,99032.00
2019-03-10T12:39:29.153Z,99034.71
2019-03-10T12:41:58.980Z,99030.52
2019-03-10T12:44:34.425Z,99025.46
2019-03-10T12:47:05.877Z,99026.27
2019-03-10T12:49:34.463Z,99020.34
2019-03-10T12:52:04.689Z,99013.20
2019-03-10T12:54:33.276Z,98995.91
2019-03-10T12:57:06.637Z,98990.86
2019-03-10T12:59:35.381Z,98990.95
2019-03-10T13:02:07.253Z,98991.70
2019-03-10T13:04:36.174Z,98980.04
2019-03-10T13:07:07.380Z,98971.37
2019-03-10T13:09:36.153Z,98960.45
2019-03-10T13:12:04.733Z,98950.88
2019-03-10T13:14:38.236Z,98945.05
2019-03-10T13:17:08.113Z,98931.91
2019-03-10T13:19:37.132Z,98920.64
2019-03-10T13:22:06.053Z,98911.97
2019-03-10T13:24:37.943Z,98908.51
2019-03-10T13:27:06.539Z,98902.77
2019-03-10T13:29:35.171Z,98899.42
2019-03-10T13:32:05.735Z,98888.73
2019-03-10T13:34:34.756Z,98877.72
2019-03-10T13:37:03.603Z,98873.45
2019-03-10T13:39:35.284Z,98872.89
2019-03-10T13:42:03.864Z,98860.13
2019-03-10T13:44:35.607Z,98859.11
2019-03-10T13:47:06.434Z,98862.86
2019-03-10T13:49:35.621Z,98858.90
2019-03-10T13:52:07.318Z,98861.33
2019-03-10T13:54:36.270Z,98851.84
2019-03-10T13:57:05.457Z,98853.80
2019-03-10T13:59:37.645Z,98855.84
2019-03-10T14:02:06.662Z,98867.29
2019-03-10T14:04:35.288Z,98856.17
2019-03-10T14:07:10.276Z,98839.89
2019-03-10T14:09:39.496Z,98845.64
2019-03-10T14:12:09.706Z,98845.27
2019-03-10T14:14:39.299Z,98841.37
2019-03-10T14:17:11.382Z,98840.25
2019-03-10T14:19:40.305Z,98822.17
2019-03-10T14:22:08.881Z,98822.16
2019-03-10T14:24:37.928Z,98818.59
2019-03-10T14:27:07.865Z,98823.66
2019-03-10T14:29:36.462Z,98821.08
2019-03-10T14:32:07.132Z,98819.02
2019-03-10T14:34:35.978Z,98817.13
2019-03-10T14:37:04.922Z,98798.90
2019-03-10T14:39:35.121Z,98793.17
2019-03-10T14:42:05.317Z,98792.05
2019-03-10T14:44:35.029Z,98793.41
2019-03-10T14:47:05.918Z,98779.67
2019-03-10T14:49:34.524Z,98784.84
2019-03-10T14:52:06.324Z,98776.41
2019-03-10T14:54:34.928Z,98762.41
2019-03-10T14:57:03.841Z,98770.66
2019-03-10T14:59:32.893Z,98759.69
2019-03-10T15:02:01.836Z,98758.27
2019-03-10T15:04:30.449Z,98754.89
2019-03-10T15:06:59.003Z,98736.78
2019-03-10T15:09:27.561Z,98742.25
2019-03-10T15:11:56.460Z,98751.75
2019-03-10T15:14:25.625Z,98757.66
2019-03-10T15:17:01.568Z,98745.66
2019-03-10T15:19:24.579Z,98715.03
2019-03-10T15:22:14.394Z,98708.77
2019-03-10T15:24:42.984Z,98744.00
2019-03-10T15:27:11.539Z,98744.00
2019-03-10T15:29:40.515Z,98740.04
2019-03-10T15:32:11.457Z,98740.04
2019-03-10T15:34:42.046Z,98734.38
2019-03-10T15:37:12.553Z,98719.20
2019-03-10T15:39:42.031Z,98757.12
2019-03-10T15:42:14.016Z,98724.97
2019-03-10T15:44:42.753Z,98761.84
2019-03-10T15:47:11.503Z,98789.87
2019-03-10T15:49:43.446Z,98789.87
2019-03-10T15:52:12.099Z,98757.54
2019-03-10T15:54:44.317Z,98801.62
2019-03-10T15:57:16.288Z,98825.94
2019-03-10T15:59:46.318Z,98833.38
2019-03-10T16:02:17.195Z,98846.11
2019-03-10T16:04:45.946Z,98839.92
2019-03-10T16:07:15.846Z,98832.55
2019-03-10T16:09:44.851Z,98841.03
2019-03-10T16:12:14.174Z,98854.00
2019-03-10T16:14:42.829Z,98875.67
2019-03-10T16:17:11.785Z,98875.73
2019-03-10T16:19:45.641Z,98878.66
2019-03-10T16:22:14.278Z,98875.64
2019-03-10T16:24:46.455Z,98898.56
2019-03-10T16:27:23.408Z,98887.44
2019-03-10T16:29:52.426Z,98885.91
2019-03-10T16:32:22.013Z,98896.76
2019-03-10T16:34:52.303Z,98882.86
2019-03-10T16:37:21.612Z,98903.72
2019-03-10T16:39:50.546Z,98889.64
2019-03-10T16:42:20.739Z,98882.27
2019-03-10T16:44:51.263Z,98897.02
2019-03-10T16:47:19.925Z,98893.11
2019-03-10T16:49:50.220Z,98905.53
2019-03-10T16:52:20.421Z,98891.97
2019-03-10T16:54:49.846Z,98914.42
2019-03-10T16:57:18.471Z,98908.23
2019-03-10T16:59:52.283Z,98881.84
2019-03-10T17:02:21.289Z,98902.81
2019-03-10T17:04:53.339Z,98894.11
2019-03-10T17:07:22.320Z,98897.88
2019-03-10T17:09:51.549Z,98891.45
2019-03-10T17:12:22.025Z,98917.98
2019-03-10T17:14:50.740Z,98940.48
2019-03-10T17:17:20.119Z,98937.25
2019-03-10T17:19:54.837Z,98961.47
2019-03-10T17:22:23.431Z,99018.83
2019-03-10T17:24:54.357Z,99090.34
2019-03-10T17:27:23.121Z,99123.06
2019-03-10T17:29:55.440Z,99157.73
2019-03-10T17:32:26.110Z,99190.95
2019-03-10T17:34:55.135Z,99234.98
2019-03-10T17:37:24.665Z,99271.88
2019-03-10T17:39:53.731Z,99296.95
2019-03-10T17:42:24.035Z,99320.24
2019-03-10T17:44:52.740Z,99362.07
2019-03-10T17:47:26.724Z,99381.44
2019-03-10T17:49:53.388Z,99416.45
2019-03-10T17:52:22.187Z,99440.30
2019-03-10T17:54:56.487Z,99476.17
2019-03-10T17:57:25.486Z,99510.16
2019-03-10T17:59:54.370Z,99552.95
2019-03-10T18:02:29.031Z,99580.08
2019-03-10T18:04:58.055Z,99601.15
2019-03-10T18:07:28.810Z,99641.73
2019-03-10T18:09:58.152Z,99671.22
2019-03-10T18:12:26.834Z,99681.16
2019-03-10T18:14:55.407Z,99720.39
2019-03-10T18:17:24.582Z,99743.66
2019-03-10T18:19:55.260Z,99767.05
2019-03-10T18:22:23.841Z,99789.34
2019-03-10T18:24:52.918Z,99807.48
2019-03-10T18:27:24.513Z,99812.62
2019-03-10T18:29:53.101Z,99821.86
2019-03-10T18:32:25.156Z,99844.17
2019-03-10T18:34:55.795Z,99847.55
2019-03-10T18:37:25.951Z,99861.81
2019-03-10T18:39:57.906Z,99882.08
2019-03-10T18:42:27.275Z,99894.59
2019-03-10T18:44:58.024Z,99896.17
2019-03-10T18:47:26.661Z,99904.70
2019-03-10T18:49:58.763Z,99911.08
2019-03-10T18:52:33.237Z,99918.83
2019-03-10T18:55:03.989Z,99932.12
2019-03-10T18:57:35.036Z,99945.02
2019-03-10T19:00:05.867Z,99944.21
2019-03-10T19:02:36.670Z,99955.42
2019-03-10T19:05:07.023Z,99958.38
2019-03-10T19:07:37.570Z,99962.75
2019-03-10T19:10:09.685Z,99971.01
2019-03-10T19:12:39.721Z,99983.64
2019-03-10T19:15:10.954Z,99992.73
2019-03-10T19:17:39.695Z,99998.45
2019-03-10T19:20:09.157Z,100000.26
2019-03-10T19:22:39.430Z,99997.53
2019-03-10T19:25:12.947Z,100003.64
2019-03-10T19:27:44.295Z,100009.21
2019-03-10T19:30:19.200Z,100009.74
2019-03-10T19:32:48.525Z,100018.00
2019-03-10T19:35:17.188Z,100021.00
2019-03-10T19:37:46.085Z,100032.98
2019-03-10T19:40:14.736Z,100030.06
2019-03-10T19:42:44.987Z,100032.67
2019-03-10T19:45:14.602Z,100037.04
2019-03-10T19:47:48.301Z,100039.05
2019-03-10T19:50:16.957Z,100030.41
2019-03-10T19:52:47.278Z,100045.65
2019-03-10T19:55:16.393Z,100051.26
2019-03-10T19:57:45.414Z,100045.52
2019-03-10T20:00:17.122Z,100054.94
2019-03-10T20:02:50.124Z,100048.66
2019-03-10T20:05:21.371Z,100061.71
2019-03-10T20:07:52.360Z,100059.20
2019-03-10T20:10:20.986Z,100063.97
2019-03-10T20:12:50.486Z,100072.64
2019-03-10T20:15:19.919Z,100052.22
2019-03-10T20:17:52.094Z,100078.72
2019-03-10T20:20:21.069Z,100079.92
2019-03-10T20:22:53.749Z,100084.00
2019-03-10T20:25:22.381Z,100098.43
2019-03-10T20:27:51.420Z,100104.50
2019-03-10T20:30:21.555Z,100117.06
2019-03-10T20:32:50.142Z,100124.15
2019-03-10T20:35:19.775Z,100127.15
2019-03-10T20:37:48.425Z,100131.95
2019-03-10T20:40:20.481Z,100134.69
2019-03-10T20:42:51.042Z,100142.52
2019-03-10T20:45:24.943Z,100139.39
2019-03-10T20:48:02.096Z,100141.17
2019-03-10T20:50:30.723Z,100154.27
2019-03-10T20:52:59.870Z,100153.81
2019-03-10T20:55:30.001Z,100162.52
2019-03-10T20:58:00.327Z,100165.13
2019-03-10T21:00:28.955Z,100170.29
2019-03-10T21:03:01.215Z,100171.69
2019-03-10T21:05:35.269Z,100183.91
2019-03-10T21:08:04.287Z,100176.39
2019-03-10T21:10:36.237Z,100185.59
2019-03-10T21:13:06.527Z,100180.30
2019-03-10T21:15:38.744Z,100188.08
2019-03-10T21:18:07.362Z,100195.42
2019-03-10T21:20:36.126Z,100199.79
2019-03-10T21:23:04.888Z,100214.24
2019-03-10T21:25:33.937Z,100210.23
2019-03-10T21:28:02.871Z,100223.26
2019-03-10T21:30:34.687Z,100227.20
2019-03-10T21:33:06.765Z,100221.13
2019-03-10T21:35:35.785Z,100223.77
2019-03-10T21:38:06.445Z,100233.56
2019-03-10T21:40:38.319Z,100243.27
2019-03-10T21:43:07.665Z,100233.83
2019-03-10T21:45:40.001Z,100234.76
2019-03-10T21:48:08.771Z,100235.64
2019-03-10T21:50:41.133Z,100231.78
2019-03-10T21:53:10.595Z,100230.63
2019-03-10T21:55:40.273Z,100230.47
2019-03-10T21:58:13.728Z,100234.64
2019-03-10T22:00:42.410Z,100238.59
2019-03-10T22:03:10.893Z,100226.35
2019-03-10T22:05:40.974Z,100234.09
2019-03-10T22:08:09.562Z,100236.80
2019-03-10T22:10:40.081Z,100234.40
2019-03-10T22:13:10.351Z,100240.86
2019-03-10T22:15:41.918Z,100230.39
2019-03-10T22:18:10.199Z,100236.64
2019-03-10T22:20:41.267Z,100240.00
2019-03-10T22:23:11.200Z,100241.14
2019-03-10T22:25:40.232Z,100233.83
2019-03-10T22:28:12.208Z,100244.64
2019-03-10T22:30:41.236Z,100244.02
2019-03-10T22:33:10.587Z,100241.50
2019-03-10T22:35:39.183Z,100247.25
2019-03-10T22:38:08.166Z,100259.47
2019-03-10T22:40:38.063Z,100260.67
2019-03-10T22:43:06.616Z,100260.16
2019-03-10T22:45:39.098Z,100264.56
2019-03-10T22:48:09.678Z,100269.33
2019-03-10T22:50:38.658Z,100277.50
2019-03-10T22:53:09.186Z,100276.23
2019-03-10T22:55:38.080Z,100279.09
2019-03-10T22:58:07.696Z,100285.67
2019-03-10T23:00:47.449Z,100283.51
2019-03-10T23:03:16.323Z,100290.44
2019-03-10T23:05:46.927Z,100285.99
2019-03-10T23:08:20.682Z,100286.48
2019-03-10T23:10:52.542Z,100306.09
2019-03-10T23:13:23.170Z,100298.61
2019-03-10T23:15:53.658Z,100303.34
2019-03-10T23:18:23.011Z,100301.19
2019-03-10T23:20:53.577Z,100295.99
2019-03-10T23:23:23.512Z,100294.59
2019-03-10T23:25:52.471Z,100296.28
2019-03-10T23:28:21.956Z,100292.42
2019-03-10T23:30:50.922Z,100289.75
2019-03-10T23:33:19.837Z,100286.74
2019-03-10T23:35:50.565Z,100290.30
2019-03-10T23:38:19.307Z,100292.00
2019-03-10T23:40:47.897Z,100302.45
2019-03-10T23:43:16.831Z,100291.05
2019-03-10T23:45:45.403Z,100294.91
2019-03-10T23:48:14.381Z,100295.99
2019-03-10T23:50:46.028Z,100300.44
2019-03-10T23:53:14.639Z,100298.31
2019-03-10T23:55:43.232Z,100297.42
2019-03-10T23:58:12.426Z,100287.89
